createdAt,value
2022-10-24T00:01:26.277Z,33.08
2022-10-24T00:03:53.528Z,30.33
2022-10-24T00:06:23.658Z,34.72
2022-10-24T00:08:52.111Z,30.70
2022-10-24T00:11:26.647Z,35.42
2022-10-24T00:13:56.734Z,39.53
2022-10-24T00:16:23.921Z,32.35
2022-10-24T00:18:51.058Z,34.10
2022-10-24T00:21:18.413Z,37.08
2022-10-24T00:23:45.982Z,32.10
2022-10-24T00:26:14.436Z,34.75
2022-10-24T00:28:41.681Z,33.42
2022-10-24T00:31:13.749Z,34.63
2022-10-24T00:33:41.775Z,33.30
2022-10-24T00:36:19.656Z,31.50
2022-10-24T00:38:47.131Z,33.55
2022-10-24T00:41:36.196Z,34.35
2022-10-24T00:44:27.250Z,34.88
2022-10-24T00:47:23.474Z,30.65
2022-10-24T00:50:13.580Z,33.63
2022-10-24T00:52:47.737Z,36.85
2022-10-24T00:55:18.283Z,33.80
2022-10-24T00:58:15.487Z,33.55
2022-10-24T01:00:53.559Z,34.53
2022-10-24T01:03:28.891Z,37.90
2022-10-24T01:05:57.522Z,36.25
2022-10-24T01:08:50.420Z,36.67
2022-10-24T01:12:02.202Z,34.40
2022-10-24T01:15:23.514Z,34.30
2022-10-24T01:18:24.802Z,36.17
2022-10-24T01:21:29.665Z,36.65
2022-10-24T01:24:33.017Z,35.42
2022-10-24T01:27:54.208Z,38.70
2022-10-24T01:30:21.951Z,33.50
2022-10-24T01:33:16.020Z,29.40
2022-10-24T01:35:53.794Z,36.25
2022-10-24T01:38:45.917Z,26.08
2022-10-24T01:41:21.247Z,27.48
2022-10-24T01:44:05.209Z,24.50
2022-10-24T01:46:44.693Z,28.63
2022-10-24T01:49:20.719Z,25.73
2022-10-24T01:51:54.517Z,23.90
2022-10-24T01:54:22.015Z,25.45
2022-10-24T01:56:49.717Z,25.17
2022-10-24T01:59:29.013Z,27.52
2022-10-24T02:02:08.895Z,27.67
2022-10-24T02:04:47.210Z,29.05
2022-10-24T02:07:18.744Z,27.33
2022-10-24T02:09:50.888Z,24.65
2022-10-24T02:14:54.078Z,23.40
2022-10-24T02:17:22.397Z,27.15
2022-10-24T02:19:49.909Z,27.27
2022-10-24T02:22:54.804Z,23.42
2022-10-24T02:25:33.683Z,26.27
2022-10-24T02:28:11.599Z,26.92
2022-10-24T02:30:52.088Z,23.23
2022-10-24T02:33:19.982Z,28.40
2022-10-24T02:35:48.719Z,31.33
2022-10-24T02:38:17.670Z,23.33
2022-10-24T02:40:46.342Z,32.42
2022-10-24T02:43:14.775Z,28.50
2022-10-24T02:45:41.871Z,25.20
2022-10-24T02:48:15.823Z,26.67
2022-10-24T02:50:44.276Z,28.85
2022-10-24T02:53:18.914Z,28.88
2022-10-24T02:55:46.564Z,32.80
2022-10-24T02:58:13.596Z,31.48
2022-10-24T03:00:40.786Z,29.52
2022-10-24T03:03:08.003Z,33.60
2022-10-24T03:05:42.104Z,30.55
2022-10-24T03:08:12.894Z,30.40
2022-10-24T03:10:40.227Z,38.95
2022-10-24T03:13:07.286Z,34.08
2022-10-24T03:15:34.443Z,31.52
2022-10-24T03:18:03.983Z,31.98
2022-10-24T03:20:31.325Z,30.98
2022-10-24T03:23:01.797Z,33.60
2022-10-24T03:25:28.892Z,40.33
2022-10-24T03:27:55.958Z,37.67
2022-10-24T03:30:23.583Z,32.67
2022-10-24T03:32:50.732Z,29.95
2022-10-24T03:35:18.542Z,31.98
2022-10-24T03:37:45.823Z,32.80
2022-10-24T03:40:13.458Z,29.80
2022-10-24T03:42:40.743Z,29.38
2022-10-24T03:45:08.881Z,33.25
2022-10-24T03:47:36.119Z,28.70
2022-10-24T03:50:04.500Z,31.70
2022-10-24T03:52:31.874Z,30.45
2022-10-24T03:54:59.037Z,31.92
2022-10-24T03:57:26.370Z,30.73
2022-10-24T03:59:53.485Z,32.92
2022-10-24T04:02:20.690Z,33.85
2022-10-24T04:04:50.208Z,34.55
2022-10-24T04:07:17.356Z,28.58
2022-10-24T04:09:45.121Z,31.23
2022-10-24T04:12:14.603Z,33.45
2022-10-24T04:14:41.946Z,27.83
2022-10-24T04:17:12.031Z,32.67
2022-10-24T04:19:39.206Z,32.47
2022-10-24T04:22:09.060Z,25.95
2022-10-24T04:24:39.516Z,38.72
2022-10-24T04:28:08.522Z,25.85
2022-10-24T04:30:38.077Z,28.85
2022-10-24T04:33:05.210Z,27.38
2022-10-24T04:35:32.307Z,29.88
2022-10-24T04:37:59.479Z,37.90
2022-10-24T04:40:29.087Z,26.63
2022-10-24T04:42:56.665Z,24.25
2022-10-24T04:45:23.800Z,26.85
2022-10-24T04:47:50.863Z,32.95
2022-10-24T04:50:18.010Z,33.47
2022-10-24T04:52:45.078Z,25.60
2022-10-24T04:55:12.222Z,27.25
2022-10-24T04:57:39.397Z,26.92
2022-10-24T05:00:07.597Z,31.77
2022-10-24T05:02:34.680Z,27.48
2022-10-24T05:05:01.823Z,26.30
2022-10-24T05:07:31.277Z,25.45
2022-10-24T05:09:58.510Z,29.35
2022-10-24T05:12:25.724Z,24.38
2022-10-24T05:14:52.743Z,29.90
2022-10-24T05:17:19.868Z,25.75
2022-10-24T05:19:47.230Z,30.45
2022-10-24T05:22:14.369Z,28.60
2022-10-24T05:24:41.524Z,32.20
2022-10-24T05:27:08.592Z,26.52
2022-10-24T05:29:37.001Z,31.27
2022-10-24T05:32:08.097Z,31.77
2022-10-24T05:34:37.585Z,30.40
2022-10-24T05:37:05.696Z,31.80
2022-10-24T05:39:32.845Z,31.75
2022-10-24T05:41:59.963Z,42.85
2022-10-24T05:44:27.108Z,30.83
2022-10-24T05:46:54.406Z,48.00
2022-10-24T05:49:21.573Z,36.95
2022-10-24T05:51:48.801Z,30.75
2022-10-24T05:54:16.498Z,28.15
2022-10-24T05:56:43.544Z,32.03
2022-10-24T05:59:10.709Z,34.28
2022-10-24T06:01:40.829Z,36.92
2022-10-24T06:04:11.347Z,47.95
2022-10-24T06:06:44.698Z,33.22
2022-10-24T06:09:13.099Z,56.05
2022-10-24T06:11:40.403Z,34.15
2022-10-24T06:14:07.456Z,34.08
2022-10-24T06:16:35.121Z,36.58
2022-10-24T06:19:02.190Z,40.33
2022-10-24T06:21:29.424Z,44.88
2022-10-24T06:23:56.549Z,41.60
2022-10-24T06:26:26.180Z,37.95
2022-10-24T06:28:54.762Z,28.02
2022-10-24T06:31:21.929Z,43.97
2022-10-24T06:33:49.251Z,32.03
2022-10-24T06:36:16.357Z,33.78
2022-10-24T06:38:45.620Z,29.98
2022-10-24T06:41:17.108Z,28.88
2022-10-24T06:43:46.934Z,35.13
2022-10-24T06:46:16.796Z,35.13
2022-10-24T06:48:44.654Z,31.50
2022-10-24T06:51:16.216Z,28.50
2022-10-24T06:53:43.296Z,30.55
2022-10-24T06:56:10.520Z,35.53
2022-10-24T06:58:38.854Z,39.53
2022-10-24T07:01:17.733Z,40.30
2022-10-24T07:03:46.079Z,34.92
2022-10-24T07:11:28.111Z,25.65
2022-10-24T07:14:00.788Z,37.75
2022-10-24T07:16:29.643Z,27.98
2022-10-24T07:18:57.085Z,28.23
2022-10-24T07:21:29.793Z,26.83
2022-10-24T07:24:00.034Z,27.60
2022-10-24T07:26:31.191Z,24.10
2022-10-24T07:31:33.582Z,23.30
2022-10-24T07:34:03.680Z,28.85
2022-10-24T07:36:30.855Z,24.30
2022-10-24T07:38:59.978Z,21.23
2022-10-24T07:41:30.671Z,23.85
2022-10-24T07:44:00.052Z,27.23
2022-10-24T07:46:27.067Z,25.52
2022-10-24T07:48:58.209Z,29.42
2022-10-24T07:51:28.124Z,33.85
2022-10-24T07:53:56.496Z,28.10
2022-10-24T07:56:23.527Z,25.25
2022-10-24T07:58:50.670Z,24.63
2022-10-24T08:01:22.421Z,26.40
2022-10-24T08:03:49.864Z,31.48
2022-10-24T08:06:24.471Z,25.73
2022-10-24T08:08:51.703Z,21.35
2022-10-24T08:11:22.761Z,28.45
2022-10-24T08:13:53.989Z,21.70
2022-10-24T08:16:23.033Z,23.05
2022-10-24T08:18:52.552Z,20.40
2022-10-24T08:21:22.191Z,26.15
2022-10-24T08:23:52.586Z,19.70
2022-10-24T08:26:23.326Z,21.27
2022-10-24T08:28:51.553Z,24.65
2022-10-24T08:31:22.400Z,21.73
2022-10-24T08:33:55.845Z,26.63
2022-10-24T08:36:28.848Z,20.35
2022-10-24T08:38:59.069Z,20.50
2022-10-24T08:41:35.750Z,17.83
2022-10-24T08:44:35.745Z,19.55
2022-10-24T08:47:24.514Z,21.58
2022-10-24T08:50:10.168Z,21.73
2022-10-24T08:52:47.865Z,27.92
2022-10-24T08:55:44.400Z,18.63
2022-10-24T08:58:21.114Z,15.05
2022-10-24T09:00:52.532Z,19.23
2022-10-24T09:03:56.595Z,19.50
2022-10-24T09:06:31.610Z,20.88
2022-10-24T09:09:13.206Z,18.83
2022-10-24T09:11:54.999Z,15.95
2022-10-24T09:14:33.924Z,18.52
2022-10-24T09:17:33.441Z,21.02
2022-10-24T09:20:33.438Z,18.05
2022-10-24T09:23:04.672Z,14.77
2022-10-24T09:25:38.427Z,15.70
2022-10-24T09:28:06.955Z,13.63
2022-10-24T09:30:36.768Z,17.13
2022-10-24T09:33:31.442Z,16.88
2022-10-24T09:36:04.815Z,15.00
2022-10-24T09:38:38.610Z,12.98
2022-10-24T09:41:21.152Z,14.07
2022-10-24T09:43:57.169Z,19.10
2022-10-24T09:46:45.192Z,12.20
2022-10-24T09:49:22.761Z,10.82
2022-10-24T09:52:17.755Z,9.85
2022-10-24T09:54:46.482Z,13.13
2022-10-24T09:57:18.079Z,17.50
2022-10-24T09:59:59.151Z,13.85
2022-10-24T10:02:34.525Z,9.63
2022-10-24T10:05:04.349Z,10.25
2022-10-24T10:07:34.441Z,10.68
2022-10-24T10:10:08.093Z,11.68
2022-10-24T10:12:39.086Z,9.05
2022-10-24T10:15:30.877Z,13.00
2022-10-24T10:18:42.834Z,19.60
2022-10-24T10:21:20.010Z,10.57
2022-10-24T10:23:56.149Z,13.02
2022-10-24T10:26:58.854Z,14.40
2022-10-24T10:29:26.114Z,8.57
2022-10-24T10:32:22.768Z,8.80
2022-10-24T10:35:19.817Z,10.07
2022-10-24T10:37:58.967Z,10.52
2022-10-24T10:40:45.291Z,14.32
2022-10-24T10:43:37.369Z,11.93
2022-10-24T10:48:52.660Z,10.40
2022-10-24T10:51:31.614Z,10.90
2022-10-24T10:54:00.088Z,9.60
2022-10-24T10:57:03.046Z,7.28
2022-10-24T11:00:01.524Z,7.82
2022-10-24T11:02:52.171Z,8.45
2022-10-24T11:06:08.054Z,9.48
2022-10-24T11:08:42.130Z,6.78
2022-10-24T11:11:43.496Z,11.32
2022-10-24T11:14:31.801Z,9.17
2022-10-24T11:17:38.435Z,12.52
2022-10-24T11:20:48.241Z,13.25
2022-10-24T11:23:39.052Z,11.07
2022-10-24T11:26:40.304Z,11.10
2022-10-24T11:29:40.998Z,12.18
2022-10-24T11:32:24.057Z,9.75
2022-10-24T11:35:27.034Z,12.45
2022-10-24T11:38:24.620Z,7.85
2022-10-24T11:41:24.186Z,11.68
2022-10-24T11:43:55.114Z,12.57
2022-10-24T11:46:47.216Z,17.70
2022-10-24T11:49:39.642Z,9.65
2022-10-24T11:52:39.750Z,10.93
2022-10-24T11:55:24.066Z,12.10
2022-10-24T11:58:00.289Z,9.25
2022-10-24T12:00:56.513Z,16.95
2022-10-24T12:03:42.275Z,11.38
2022-10-24T12:06:30.785Z,15.38
2022-10-24T12:09:38.160Z,13.70
2022-10-24T12:12:13.525Z,14.57
2022-10-24T12:14:54.497Z,8.00
2022-10-24T12:18:34.030Z,11.95
2022-10-24T12:21:10.802Z,6.75
2022-10-24T12:23:40.323Z,13.90
2022-10-24T12:26:30.330Z,13.77
2022-10-24T12:29:04.107Z,14.20
2022-10-24T12:31:41.724Z,10.40
2022-10-24T12:34:22.911Z,13.55
2022-10-24T12:37:12.540Z,11.97
2022-10-24T12:39:47.598Z,10.00
2022-10-24T12:42:23.766Z,10.75
2022-10-24T12:44:51.389Z,9.15
2022-10-24T12:47:39.118Z,9.60
2022-10-24T12:50:21.747Z,10.18
2022-10-24T12:52:48.889Z,11.93
2022-10-24T12:55:51.190Z,14.85
2022-10-24T12:58:45.595Z,14.98
2022-10-24T13:01:39.030Z,9.25
2022-10-24T13:04:40.239Z,12.73
2022-10-24T13:07:48.341Z,13.40
2022-10-24T13:11:09.688Z,15.70
2022-10-24T13:14:08.994Z,10.98
2022-10-24T13:17:08.185Z,12.80
2022-10-24T13:19:36.625Z,11.50
2022-10-24T13:22:36.219Z,15.23
2022-10-24T13:25:33.545Z,12.65
2022-10-24T13:28:24.788Z,19.92
2022-10-24T13:31:17.839Z,15.27
2022-10-24T13:33:47.760Z,13.75
2022-10-24T13:36:28.522Z,12.93
2022-10-24T13:39:01.982Z,27.13
2022-10-24T13:41:39.483Z,18.70
2022-10-24T13:44:15.039Z,15.02
2022-10-24T13:47:07.761Z,20.30
2022-10-24T13:50:24.065Z,14.18
2022-10-24T13:52:57.801Z,16.10
2022-10-24T13:55:46.631Z,15.25
2022-10-24T13:58:44.359Z,10.10
2022-10-24T14:01:28.286Z,14.88
2022-10-24T14:03:57.484Z,17.42
2022-10-24T14:06:33.895Z,20.83
2022-10-24T14:09:10.388Z,20.17
2022-10-24T14:11:44.993Z,15.77
2022-10-24T14:14:40.189Z,21.50
2022-10-24T14:17:22.781Z,16.42
2022-10-24T14:20:13.442Z,23.05
2022-10-24T14:22:41.962Z,15.85
2022-10-24T14:25:36.560Z,26.08
2022-10-24T14:28:17.743Z,19.95
2022-10-24T14:31:01.553Z,21.20
2022-10-24T14:33:42.568Z,15.48
2022-10-24T14:36:10.367Z,14.52
2022-10-24T14:38:37.843Z,18.85
2022-10-24T14:41:10.198Z,22.80
2022-10-24T14:43:42.454Z,14.05
2022-10-24T14:46:12.802Z,13.02
2022-10-24T14:48:48.933Z,19.25
2022-10-24T14:51:43.128Z,13.80
2022-10-24T14:54:21.939Z,13.13
2022-10-24T14:56:50.391Z,19.38
2022-10-24T14:59:30.110Z,16.83
2022-10-24T15:02:03.556Z,19.08
2022-10-24T15:04:45.908Z,23.73
2022-10-24T15:10:00.286Z,22.40
2022-10-24T15:12:40.231Z,18.30
2022-10-24T15:15:31.903Z,23.65
2022-10-24T15:18:29.983Z,30.27
2022-10-24T15:21:14.188Z,22.58
2022-10-24T15:23:57.338Z,23.20
2022-10-24T15:26:45.002Z,19.98
2022-10-24T15:29:15.197Z,24.17
2022-10-24T15:31:48.752Z,30.58
2022-10-24T15:34:22.326Z,27.05
2022-10-24T15:36:52.019Z,28.55
2022-10-24T15:39:26.047Z,29.33
2022-10-24T15:41:54.242Z,21.63
2022-10-24T15:44:29.718Z,36.85
2022-10-24T15:46:57.577Z,38.03
2022-10-24T15:49:24.972Z,36.78
2022-10-24T15:51:52.255Z,27.15
2022-10-24T15:54:22.256Z,37.45
2022-10-24T15:56:52.363Z,40.15
2022-10-24T15:59:26.702Z,36.47
2022-10-24T16:02:00.499Z,36.40
2022-10-24T16:04:29.199Z,30.52
2022-10-24T16:06:59.170Z,28.73
2022-10-24T16:09:27.910Z,28.80
2022-10-24T16:11:55.792Z,29.48
2022-10-24T16:14:30.403Z,25.83
2022-10-24T16:17:00.314Z,25.17
2022-10-24T16:19:29.816Z,35.97
2022-10-24T16:22:01.050Z,34.80
2022-10-24T16:24:30.859Z,18.87
2022-10-24T16:26:58.015Z,27.00
2022-10-24T16:29:27.504Z,27.27
2022-10-24T16:31:54.575Z,26.10
2022-10-24T16:34:21.660Z,29.33
2022-10-24T16:36:54.736Z,30.05
2022-10-24T16:39:21.969Z,30.23
2022-10-24T16:41:54.430Z,31.00
2022-10-24T16:44:23.969Z,33.47
2022-10-24T16:46:55.470Z,30.20
2022-10-24T16:49:25.097Z,35.45
2022-10-24T16:51:52.292Z,29.27
2022-10-24T16:54:20.670Z,31.50
2022-10-24T16:56:53.621Z,26.27
2022-10-24T16:59:21.388Z,27.00
2022-10-24T17:01:48.605Z,25.52
2022-10-24T17:04:15.745Z,25.75
2022-10-24T17:06:42.790Z,36.15
2022-10-24T17:09:09.829Z,33.20
2022-10-24T17:11:45.377Z,35.90
2022-10-24T17:14:16.312Z,37.13
2022-10-24T17:16:44.416Z,31.88
2022-10-24T17:19:16.613Z,20.38
2022-10-24T17:21:48.599Z,24.40
2022-10-24T17:24:19.699Z,24.45
2022-10-24T17:26:48.657Z,23.88
2022-10-24T17:29:26.750Z,29.15
2022-10-24T17:31:55.106Z,22.30
2022-10-24T17:34:23.204Z,22.48
2022-10-24T17:37:14.344Z,29.17
2022-10-24T17:39:54.662Z,19.33
2022-10-24T17:42:22.443Z,23.35
2022-10-24T17:44:49.855Z,24.20
2022-10-24T17:47:17.362Z,32.45
2022-10-24T17:49:45.493Z,24.95
2022-10-24T17:52:19.957Z,32.00
2022-10-24T17:54:49.709Z,28.58
2022-10-24T17:57:16.877Z,27.00
2022-10-24T17:59:44.510Z,26.50
2022-10-24T18:02:15.214Z,28.58
2022-10-24T18:04:44.753Z,29.98
2022-10-24T18:07:12.071Z,25.50
2022-10-24T18:09:40.237Z,25.85
2022-10-24T18:12:10.719Z,24.92
2022-10-24T18:14:38.015Z,19.63
2022-10-24T18:17:09.012Z,25.25
2022-10-24T18:19:40.718Z,22.17
2022-10-24T18:22:07.846Z,21.25
2022-10-24T18:24:37.172Z,31.45
2022-10-24T18:27:06.495Z,26.02
2022-10-24T18:29:33.685Z,26.42
2022-10-24T18:32:03.460Z,29.15
2022-10-24T18:34:30.541Z,27.33
2022-10-24T18:36:57.645Z,23.65
2022-10-24T18:39:27.663Z,23.75
2022-10-24T18:42:03.759Z,23.05
2022-10-24T18:44:34.397Z,18.15
2022-10-24T18:47:05.651Z,25.45
2022-10-24T18:49:35.147Z,21.70
2022-10-24T18:52:48.898Z,23.83
2022-10-24T18:55:26.129Z,15.68
2022-10-24T18:57:54.384Z,24.58
2022-10-24T19:00:25.170Z,24.23
2022-10-24T19:03:30.097Z,20.75
2022-10-24T19:06:25.721Z,21.67
2022-10-24T19:08:53.036Z,20.50
2022-10-24T19:11:24.725Z,20.90
2022-10-24T19:13:52.122Z,19.05
2022-10-24T19:16:28.737Z,25.10
2022-10-24T19:19:00.755Z,19.55
2022-10-24T19:21:27.846Z,17.88
2022-10-24T19:23:55.100Z,21.67
2022-10-24T19:26:22.287Z,38.13
2022-10-24T19:28:49.698Z,35.63
2022-10-24T19:31:19.413Z,45.53
2022-10-24T19:33:50.393Z,48.45
2022-10-24T19:36:19.387Z,33.08
2022-10-24T19:38:55.744Z,36.55
2022-10-24T19:41:26.415Z,24.73
2022-10-24T19:43:57.120Z,28.85
2022-10-24T19:46:24.857Z,28.10
2022-10-24T19:48:53.385Z,31.95
2022-10-24T19:51:25.402Z,22.85
2022-10-24T19:53:53.017Z,22.77
2022-10-24T19:56:26.906Z,20.55
2022-10-24T19:58:55.511Z,28.88
2022-10-24T20:01:26.476Z,21.45
2022-10-24T20:03:56.421Z,25.60
2022-10-24T20:06:26.405Z,25.40
2022-10-24T20:08:54.002Z,28.40
2022-10-24T20:11:22.121Z,29.42
2022-10-24T20:13:53.116Z,27.58
2022-10-24T20:16:20.470Z,28.77
2022-10-24T20:18:47.985Z,29.17
2022-10-24T20:21:19.494Z,23.40
2022-10-24T20:23:48.409Z,19.42
2022-10-24T20:26:25.959Z,23.17
2022-10-24T20:28:55.579Z,18.33
2022-10-24T20:31:31.208Z,19.42
2022-10-24T20:34:07.785Z,22.27
2022-10-24T20:36:40.368Z,18.42
2022-10-24T20:39:13.871Z,20.20
2022-10-24T20:41:42.267Z,18.02
2022-10-24T20:44:09.988Z,20.55
2022-10-24T20:46:37.279Z,21.95
2022-10-24T20:49:04.627Z,20.55
2022-10-24T20:51:31.967Z,18.13
2022-10-24T20:54:07.218Z,19.08
2022-10-24T20:56:35.904Z,25.30
2022-10-24T20:59:09.316Z,19.60
2022-10-24T21:01:36.683Z,16.05
2022-10-24T21:04:03.903Z,16.92
2022-10-24T21:06:34.548Z,19.52
2022-10-24T21:09:11.763Z,17.58
2022-10-24T21:11:42.457Z,16.25
2022-10-24T21:14:14.565Z,17.55
2022-10-24T21:16:41.902Z,23.27
2022-10-24T21:19:08.961Z,14.52
2022-10-24T21:21:40.703Z,15.80
2022-10-24T21:24:08.341Z,14.00
2022-10-24T21:26:39.411Z,15.05
2022-10-24T21:29:31.262Z,16.27
2022-10-24T21:31:55.338Z,16.15
2022-10-24T21:34:23.148Z,18.52
2022-10-24T21:36:50.381Z,15.95
2022-10-24T21:39:22.311Z,13.68
2022-10-24T21:41:49.452Z,24.88
2022-10-24T21:44:19.106Z,25.92
2022-10-24T21:46:48.297Z,16.67
2022-10-24T21:49:15.414Z,16.00
2022-10-24T21:51:43.896Z,21.02
2022-10-24T21:54:19.760Z,16.55
2022-10-24T21:56:46.986Z,18.67
2022-10-24T21:59:19.728Z,18.63
2022-10-24T22:01:49.172Z,16.88
2022-10-24T22:04:19.935Z,15.50
2022-10-24T22:06:50.629Z,17.27
2022-10-24T22:09:23.827Z,18.20
2022-10-24T22:11:51.089Z,18.92
2022-10-24T22:14:21.094Z,15.80
2022-10-24T22:16:48.174Z,21.50
2022-10-24T22:19:16.143Z,14.82
2022-10-24T22:21:47.582Z,19.90
2022-10-24T22:24:21.621Z,16.83
2022-10-24T22:26:52.366Z,19.83
2022-10-24T22:29:23.412Z,21.40
2022-10-24T22:31:52.696Z,20.27
2022-10-24T22:34:25.989Z,20.23
2022-10-24T22:39:58.612Z,14.55
2022-10-24T22:42:28.678Z,16.52
2022-10-24T22:44:58.486Z,16.50
2022-10-24T22:48:03.137Z,18.73
2022-10-24T22:50:47.675Z,19.73
2022-10-24T22:53:18.487Z,18.83
2022-10-24T22:56:06.526Z,22.85
2022-10-24T22:58:34.084Z,16.05
2022-10-24T23:01:29.743Z,12.75
2022-10-24T23:04:06.212Z,17.63
2022-10-24T23:07:07.492Z,21.10
2022-10-24T23:09:34.521Z,15.27
2022-10-24T23:12:02.013Z,16.83
2022-10-24T23:14:29.532Z,19.20
2022-10-24T23:17:03.862Z,19.55
2022-10-24T23:19:32.698Z,18.60
2022-10-24T23:22:30.382Z,15.63
2022-10-24T23:25:01.011Z,19.10
2022-10-24T23:27:39.333Z,12.07
2022-10-24T23:30:20.454Z,14.35
2022-10-24T23:32:49.355Z,19.70
2022-10-24T23:35:19.698Z,12.77
2022-10-24T23:37:50.520Z,11.00
2022-10-24T23:40:17.491Z,10.88
2022-10-24T23:42:46.437Z,13.02
2022-10-24T23:45:16.273Z,12.55
2022-10-24T23:48:09.333Z,10.52
2022-10-24T23:51:31.109Z,11.88
2022-10-24T23:53:59.088Z,11.93
2022-10-24T23:56:32.548Z,15.40
2022-10-24T23:58:59.621Z,10.00
